Latest Weather Observations for Walpole North

IDW60801

Issued at 11:35 pm WST Friday 19 September 2014 (issued every 30 minutes, with the page automatically refreshed every 10 minutes)

About weather observations | Map of weather stations | Latest weather observations for WA | Other Formats
Station Details ID: 009998 Name: NORTH WALPOLE Lat: -34.95 Lon: 116.72 Height: 73.0 m
Data from the previous 72 hours. | See also: Recent months at Walpole North
Date/Time
WST
Temp
°C
App
Temp
°C
Dew
Point
Rel
Hum
%
Delta-T
°C
Wind Press
QNH
hPa
Press
MSL
hPa
Rain
since 9 am
mm
Dir
 
Spd
km/h
Gust
km/h
Spd
kts
Gust
kts
19/11:30pm 13.0 11.7 11.1 88 1.0 ENE 9 15 5 8 1020.2 1020.2 0.0
19/11:00pm 13.3 11.7 11.4 88 1.0 ENE 11 17 6 9 1020.5 1020.5 0.0
19/10:30pm 13.5 11.9 11.6 88 1.0 NE 11 15 6 8 1020.7 1020.7 0.0
19/10:00pm 13.6 12.0 11.7 88 1.0 ENE 11 15 6 8 1020.8 1020.8 0.0
19/09:30pm 13.8 12.2 11.7 87 1.1 ENE 11 17 6 9 1021.1 1021.1 0.0
19/09:00pm 14.1 12.3 12.1 88 1.1 ENE 13 19 7 10 1021.4 1021.4 0.0
19/08:30pm 14.0 12.9 12.0 88 1.1 NE 9 13 5 7 1021.6 1021.6 0.0
19/08:00pm 14.1 13.0 11.8 86 1.2 NE 9 11 5 6 1021.5 1021.5 0.0
19/07:30pm 14.3 13.2 11.8 85 1.3 ENE 9 13 5 7 1021.3 1021.3 0.0
19/07:00pm 14.7 13.9 11.8 83 1.6 E 7 9 4 5 1021.2 1021.2 0.0
19/06:30pm 14.9 14.2 11.9 82 1.6 ESE 7 9 4 5 1020.8 1020.8 0.0
19/06:00pm 16.0 15.5 12.2 78 2.1 ESE 6 9 3 5 1020.8 1020.8 0.0
19/05:30pm 16.6 15.6 12.2 75 2.4 SE 9 13 5 7 1020.5 1020.5 0.0
19/05:00pm 17.4 16.2 12.7 74 2.6 SE 11 19 6 10 1020.4 1020.4 0.0
19/04:30pm 18.1 17.9 13.0 72 2.9 S 6 13 3 7 1020.2 1020.2 0.0
19/04:00pm 18.9 18.7 13.5 71 3.1 SSE 7 15 4 8 1020.3 1020.3 0.0
19/03:30pm 18.8 17.7 13.2 70 3.2 SSE 11 20 6 11 1020.3 1020.3 0.0
19/03:00pm 19.4 18.8 13.6 69 3.3 SSE 9 19 5 10 1020.0 1020.0 0.0
19/02:30pm 19.6 18.9 13.3 67 3.6 SSE 9 19 5 10 1020.1 1020.1 0.0
19/02:00pm 20.0 19.1 13.7 67 3.6 SSE 11 19 6 10 1020.1 1020.1 0.0
19/01:30pm 20.5 19.8 14.2 67 3.7 SSE 11 19 6 10 1020.3 1020.3 0.0
19/01:00pm 20.9 19.4 10.7 52 5.6 W 9 20 5 11 1020.5 1020.5 0.0
19/12:30pm 20.4 19.6 11.6 57 4.9 NNW 7 13 4 7 1020.7 1020.7 0.0
19/12:00pm 19.8 18.7 11.8 60 4.4 NW 9 17 5 9 1021.0 1021.0 0.0
19/11:30am 19.5 19.1 12.3 63 4.0 W 6 11 3 6 1021.3 1021.3 0.0
19/11:00am 18.3 17.7 11.6 65 3.7 W 6 13 3 7 1021.5 1021.5 0.0
19/10:30am 18.5 17.6 12.5 68 3.4 NW 9 15 5 8 1021.4 1021.4 0.0
19/10:00am 17.7 16.9 11.7 68 3.3 WNW 7 13 4 7 1021.7 1021.7 0.0
19/09:30am 17.5 16.5 12.2 71 2.9 WNW 9 15 5 8 1021.9 1021.9 0.0
19/09:00am 16.5 17.7 13.8 84 1.5 CALM 0 0 0 0 1022.0 1022.0 1.2
19/08:30am 15.4 16.8 14.4 94 0.6 CALM 0 0 0 0 1021.9 1021.9 1.2
19/08:00am 14.7 16.0 14.1 96 0.3 CALM 0 0 0 0 1021.6 1021.6 1.2
19/07:30am 13.9 15.1 13.7 99 0.1 CALM 0 0 0 0 1021.1 1021.1 1.2
19/07:00am 13.0 13.9 12.8 99 0.1 CALM 0 0 0 0 1020.7 1020.7 1.2
19/06:30am 12.9 13.7 12.6 98 0.2 CALM 0 0 0 0 1020.4 1020.4 1.2
19/06:00am 13.0 13.8 12.5 97 0.3 WNW 0 0 0 0 1020.0 1020.0 1.2
19/05:30am 13.0 13.8 12.5 97 0.3 CALM 0 0 0 0 1019.7 1019.8 1.2
19/05:00am 13.2 12.7 12.7 97 0.3 W 7 11 4 6 1019.6 1019.6 1.2
19/04:30am 13.7 12.0 13.5 99 0.1 WSW 15 26 8 14 1019.4 1019.4 1.2
19/04:00am 13.9 13.0 13.7 99 0.1 WSW 11 15 6 8 1019.1 1019.1 1.2
19/03:30am 14.1 12.9 13.9 99 0.1 WNW 13 19 7 10 1018.8 1018.8 0.8
19/03:00am 13.7 13.1 13.4 98 0.2 WNW 9 15 5 8 1018.3 1018.3 0.6
19/02:30am 13.3 12.4 12.5 95 0.4 W 9 17 5 9 1018.5 1018.5 0.2
19/02:00am 13.8 12.3 13.0 95 0.4 NNW 13 20 7 11 1018.2 1018.2 0.0
19/01:30am 13.7 12.0 12.6 93 0.6 NW 13 20 7 11 1018.3 1018.3 0.0
19/01:00am 13.7 12.3 12.3 91 0.8 NW 11 17 6 9 1018.4 1018.4 0.0
19/12:30am 14.0 11.2 12.6 91 0.8 NW 19 24 10 13 1018.3 1018.3 0.0
19/12:00am 14.0 11.6 12.6 91 0.8 NNW 17 26 9 14 1018.2 1018.2 0.0
 
Date/Time
WST
Temp
°C
App
Temp
°C
Dew
Point
Rel
Hum
%
Delta-T
°C
Wind Press
QNH
hPa
Press
MSL
hPa
Rain
since 9 am
mm
Dir
 
Spd
km/h
Gust
km/h
Spd
kts
Gust
kts
18/11:30pm 13.8 11.3 12.2 90 0.9 NW 17 26 9 14 1018.4 1018.4 0.0
18/11:00pm 13.9 11.7 12.1 89 1.0 NW 15 19 8 10 1018.5 1018.5 0.0
18/10:30pm 14.2 11.7 12.2 88 1.1 NW 17 20 9 11 1018.7 1018.7 0.0
18/10:00pm 13.7 11.8 11.7 88 1.1 NW 13 20 7 11 1018.8 1018.8 0.0
18/09:30pm 13.9 12.0 11.8 87 1.1 NW 13 17 7 9 1018.6 1018.6 0.0
18/09:00pm 14.4 11.8 11.9 85 1.3 NW 17 26 9 14 1018.4 1018.4 0.0
18/08:30pm 14.8 11.8 12.1 84 1.5 NW 19 28 10 15 1018.2 1018.2 0.0
18/08:00pm 15.0 11.9 12.3 84 1.5 NW 20 26 11 14 1017.9 1017.9 0.0
18/07:30pm 15.3 12.3 12.6 84 1.5 WNW 20 24 11 13 1017.8 1017.8 0.0
18/07:00pm 14.9 13.2 12.6 86 1.3 WNW 13 19 7 10 1017.5 1017.5 0.0
18/06:30pm 15.5 13.5 12.8 84 1.5 WNW 15 22 8 12 1016.9 1016.9 0.0
18/06:00pm 16.3 14.0 13.0 81 1.8 W 17 26 9 14 1016.7 1016.7 0.0
18/05:30pm 17.1 15.1 12.6 75 2.5 W 15 20 8 11 1016.7 1016.7 0.0
18/05:00pm 18.6 17.0 13.9 74 2.7 W 15 26 8 14 1016.6 1016.6 0.0
18/04:30pm 19.2 17.2 14.0 72 3.0 WNW 17 26 9 14 1015.9 1015.9 0.0
18/04:00pm 19.7 17.9 14.5 72 3.0 WSW 17 26 9 14 1015.7 1015.7 0.0
18/03:30pm 20.0 17.9 13.7 67 3.6 W 17 24 9 13 1015.7 1015.7 0.0
18/03:00pm 20.0 17.3 13.0 64 4.0 W 19 28 10 15 1015.6 1015.6 0.0
18/02:30pm 20.6 18.7 13.1 62 4.3 W 15 22 8 12 1015.7 1015.7 0.0
18/02:00pm 20.9 19.0 13.1 61 4.5 W 15 24 8 13 1015.9 1015.9 0.0
18/01:30pm 20.8 19.0 14.5 67 3.7 WSW 17 26 9 14 1016.1 1016.1 0.0
18/01:00pm 19.7 18.5 13.9 69 3.3 SW 13 20 7 11 1016.2 1016.2 0.0
18/12:30pm 18.8 18.0 13.9 73 2.8 SE 11 19 6 10 1016.5 1016.5 0.0
18/12:00pm 19.1 18.6 13.7 71 3.1 S 9 15 5 8 1016.9 1016.9 0.0
18/11:30am 19.5 19.1 14.1 71 3.1 S 9 15 5 8 1017.0 1017.0 0.0
18/11:00am 19.3 19.5 14.1 72 3.0 W 6 11 3 6 1017.0 1017.0 0.0
18/10:30am 18.8 20.5 15.1 79 2.2 CALM 0 0 0 0 1017.2 1017.2 0.0
18/10:00am 18.0 20.1 16.3 90 1.0 CALM 0 0 0 0 1017.4 1017.4 0.0
18/09:30am 17.0 17.9 16.5 97 0.3 E 7 11 4 6 1017.6 1017.6 0.0
18/09:00am 16.2 16.9 16.2 100 0.0 ENE 7 11 4 6 1017.7 1017.7 0.2
18/08:30am 14.8 16.4 14.8 100 0.0 CALM 0 0 0 0 1017.8 1017.8 0.2
18/08:00am 13.2 14.2 13.2 100 0.0 CALM 0 0 0 0 1017.8 1017.8 0.2
18/07:30am 11.6 12.0 11.4 99 0.1 CALM 0 0 0 0 1017.6 1017.6 0.2
18/07:00am 11.0 11.3 10.8 99 0.1 CALM 0 0 0 0 1017.3 1017.3 0.2
18/06:30am 11.1 11.4 10.9 99 0.1 CALM 0 0 0 0 1017.4 1017.4 0.2
18/06:00am 10.4 10.5 10.2 99 0.1 CALM 0 0 0 0 1017.3 1017.3 0.0
18/05:30am 10.7 10.9 10.5 99 0.1 CALM 0 0 0 0 1017.1 1017.1 0.0
18/05:00am 10.3 10.4 10.1 99 0.1 CALM 0 0 0 0 1017.1 1017.1 0.0
18/04:30am 10.0 10.0 9.9 99 0.1 CALM 0 0 0 0 1017.2 1017.2 0.0
18/04:00am 10.9 11.1 10.7 99 0.1 CALM 0 0 0 0 1017.1 1017.1 0.0
18/03:30am 12.0 12.6 11.8 99 0.1 CALM 0 0 0 0 1017.0 1017.0 0.0
18/03:00am 12.0 12.6 11.8 99 0.1 CALM 0 0 0 0 1017.2 1017.2 0.0
18/02:30am 10.7 10.9 10.5 99 0.1 CALM 0 0 0 0 1017.4 1017.4 0.0
18/02:00am 13.0 12.5 12.8 99 0.1 ENE 7 11 4 6 1017.3 1017.3 0.0
18/01:30am 13.0 13.9 12.8 99 0.1 CALM 0 7 0 4 1017.6 1017.6 0.0
18/01:00am 12.8 13.6 12.6 99 0.1 CALM 0 0 0 0 1017.9 1017.9 0.0
18/12:30am 12.8 13.6 12.6 99 0.1 CALM 0 0 0 0 1017.9 1017.9 0.0
18/12:00am 12.3 13.0 12.1 99 0.1 CALM 0 0 0 0 1018.0 1018.0 0.0
 
Date/Time
WST
Temp
°C
App
Temp
°C
Dew
Point
Rel
Hum
%
Delta-T
°C
Wind Press
QNH
hPa
Press
MSL
hPa
Rain
since 9 am
mm
Dir
 
Spd
km/h
Gust
km/h
Spd
kts
Gust
kts
17/11:30pm 13.1 12.7 12.9 99 0.1 E 7 9 4 5 1017.9 1017.9 0.0
17/11:00pm 13.5 13.4 13.3 99 0.1 E 6 7 3 4 1018.1 1018.1 0.0
17/10:30pm 13.7 13.6 13.4 98 0.2 E 6 9 3 5 1018.1 1018.1 0.0
17/10:00pm 13.4 13.0 12.9 97 0.3 E 7 9 4 5 1018.3 1018.3 0.0
17/09:30pm 13.5 13.3 12.9 96 0.3 ESE 6 7 3 4 1018.4 1018.4 0.0
17/09:00pm 13.8 13.0 13.0 95 0.4 E 9 11 5 6 1018.3 1018.3 0.0
17/08:30pm 13.5 13.1 12.4 93 0.6 E 6 9 3 5 1018.4 1018.4 0.0
17/08:00pm 13.9 14.7 12.5 91 0.8 CALM 0 0 0 0 1018.2 1018.2 0.0
17/07:30pm 14.2 14.3 12.6 90 0.9 E 4 7 2 4 1017.8 1017.8 0.0
17/07:00pm 14.6 14.1 12.6 88 1.1 E 7 11 4 6 1017.4 1017.4 0.0
17/06:30pm 15.2 14.4 12.9 86 1.3 E 9 15 5 8 1017.0 1017.0 0.0
17/06:00pm 15.6 13.7 12.9 84 1.5 SE 15 19 8 10 1016.9 1016.9 0.0
17/05:30pm 16.5 15.0 13.0 80 2.0 ESE 13 19 7 10 1016.6 1016.6 0.0
17/05:00pm 17.3 15.1 13.2 77 2.3 ESE 17 20 9 11 1016.3 1016.3 0.0
17/04:30pm 17.9 15.7 13.4 75 2.6 SE 17 22 9 12 1016.3 1016.3 0.0
17/04:00pm 18.3 17.4 13.6 74 2.7 SSE 11 22 6 12 1016.2 1016.2 0.0
17/03:30pm 18.8 18.1 14.3 75 2.6 SSE 11 22 6 12 1016.1 1016.1 0.0
17/03:00pm 18.6 17.4 13.9 74 2.7 SSE 13 22 7 12 1015.8 1015.8 0.0
17/02:30pm 19.5 18.9 14.7 74 2.8 S 11 24 6 13 1015.6 1015.6 0.0
17/02:00pm 19.4 18.1 13.6 69 3.3 SE 13 19 7 10 1015.6 1015.6 0.0
17/01:30pm 19.8 19.0 12.8 64 4.0 N 9 15 5 8 1015.7 1015.7 0.0
17/01:00pm 19.3 18.6 13.2 68 3.5 SE 9 20 5 11 1016.1 1016.1 0.0
17/12:30pm 19.1 18.6 13.7 71 3.1 S 9 17 5 9 1016.6 1016.6 0.0
17/12:00pm 18.9 19.0 12.6 67 3.5 NE 4 13 2 7 1017.0 1017.0 0.0
17/11:30am 18.2 16.8 12.2 68 3.3 E 11 17 6 9 1017.2 1017.2 0.0
17/11:00am 17.5 16.4 12.0 70 3.0 ENE 9 15 5 8 1017.6 1017.6 0.0
17/10:30am 17.8 16.7 12.0 69 3.2 ENE 9 17 5 9 1018.1 1018.1 0.0
17/10:00am 16.5 14.1 11.4 72 2.8 E 15 22 8 12 1018.5 1018.5 0.0
17/09:30am 16.5 15.2 12.5 77 2.2 ENE 11 20 6 11 1018.7 1018.7 0.0
17/09:00am 14.6 14.8 11.9 84 1.5 E 2 11 1 6 1019.1 1019.1 -
17/08:30am 12.8 12.0 10.9 88 1.0 SE 6 9 3 5 1019.4 1019.4 -
17/08:00am 11.6 10.5 10.0 90 0.8 ENE 6 13 3 7 1019.1 1019.1 -
17/07:30am 10.9 10.8 9.5 91 0.7 CALM 0 4 0 2 1019.2 1019.2 -
17/07:00am 9.9 9.6 8.8 93 0.5 CALM 0 0 0 0 1019.3 1019.3 -
17/06:30am 9.1 7.3 7.9 92 0.6 ENE 7 9 4 5 1019.0 1019.0 -
17/06:00am 8.7 6.3 7.2 90 0.7 E 9 11 5 6 1018.8 1018.8 -
17/05:30am 9.7 6.5 8.3 91 0.7 ENE 15 20 8 11 1018.5 1018.5 -
17/05:00am 9.5 7.0 8.1 91 0.7 ENE 11 17 6 9 1018.6 1018.6 -
17/04:30am 9.2 6.6 7.8 91 0.7 ENE 11 15 6 8 1018.5 1018.5 -
17/04:00am 9.8 6.6 8.4 91 0.7 ENE 15 20 8 11 1018.5 1018.5 -
17/03:30am 10.0 7.3 8.8 92 0.6 NE 13 17 7 9 1018.6 1018.6 -
17/03:00am 9.7 7.7 8.5 92 0.6 ENE 9 17 5 9 1018.8 1018.8 0.0
17/02:30am 9.7 7.3 8.5 92 0.6 NE 11 17 6 9 1019.0 1019.0 -
17/02:00am 10.0 7.3 8.8 92 0.6 ENE 13 19 7 10 1019.1 1019.1 -
17/01:30am 10.0 8.0 8.8 92 0.6 ENE 9 13 5 7 1019.4 1019.4 -
17/01:00am 10.0 8.4 8.8 92 0.6 NE 7 9 4 5 1019.5 1019.5 -
17/12:30am 10.0 8.0 8.6 91 0.7 ENE 9 13 5 7 1019.7 1019.8 -
17/12:00am 10.5 8.6 8.9 90 0.8 ENE 9 13 5 7 1020.1 1020.1 -

Other Formats:

Comma delimited format used in spreadsheet applications
http://www.bom.gov.au/fwo/IDW60801/IDW60801.95647.axf

JavaScript Object Notation format (JSON) in row-major order
http://www.bom.gov.au/fwo/IDW60801/IDW60801.95647.json